Terminal Aerodrome Forecast
Issued by NWS

Current Version | Previous Version | Text Only | Print | Product List | Glossary On
Versions: 1 2 3 4 5 6 7 8 9 10 11 12 13 14 15 16 17 18 19 20 21 22 23 24 25 26 27 28 29 30 31 32 33 34
000
FTUS41 KOKX 281344 AAA
TAFHPN
TAF AMD
KHPN 281344Z 2814/2912 VRB03KT P6SM SKC
     FM281500 22004KT P6SM FEW070
     FM281700 17007KT 6SM HZ SCT070 BKN200
     FM290100 VRB03KT 6SM HZ VCSH FEW080 BKN150
     FM290700 VRB03KT 6SM -SHRA SCT060 BKN120
     FM291000 VRB03KT 5SM -SHRA BKN050
      AMD NOT SKED=

USA.gov is the U.S. government's official web portal to all federal, state and local government web resources and services.